createdAt,value
2023-03-06T00:00:17.615Z,6.15
2023-03-06T00:02:45.707Z,6.05
2023-03-06T00:05:14.205Z,6.47
2023-03-06T00:07:42.049Z,6.53
2023-03-06T00:10:14.220Z,7.63
2023-03-06T00:12:43.685Z,7.10
2023-03-06T00:15:12.519Z,5.25
2023-03-06T00:17:40.954Z,5.82
2023-03-06T00:20:10.924Z,6.25
2023-03-06T00:22:38.823Z,5.88
2023-03-06T00:25:08.115Z,5.93
2023-03-06T00:27:35.919Z,6.40
2023-03-06T00:30:06.169Z,6.25
2023-03-06T00:32:35.297Z,6.00
2023-03-06T00:35:03.668Z,6.32
2023-03-06T00:37:31.439Z,7.78
2023-03-06T00:39:59.268Z,7.78
2023-03-06T00:42:27.028Z,7.18
2023-03-06T00:44:54.992Z,7.72
2023-03-06T00:47:24.864Z,6.95
2023-03-06T00:49:53.057Z,9.07
2023-03-06T00:52:20.983Z,8.40
2023-03-06T00:54:48.749Z,8.10
2023-03-06T00:57:16.586Z,8.98
2023-03-06T00:59:44.342Z,8.32
2023-03-06T01:02:12.153Z,8.10
2023-03-06T01:04:41.351Z,8.52
2023-03-06T01:07:09.175Z,8.50
2023-03-06T01:09:36.946Z,9.93
2023-03-06T01:12:05.076Z,8.50
2023-03-06T01:14:32.838Z,9.82
2023-03-06T01:17:00.614Z,11.23
2023-03-06T01:19:28.461Z,10.73
2023-03-06T01:21:57.615Z,10.93
2023-03-06T01:24:26.016Z,9.40
2023-03-06T01:26:57.536Z,9.25
2023-03-06T01:29:26.358Z,10.57
2023-03-06T01:31:54.244Z,10.38
2023-03-06T01:34:22.089Z,10.32
2023-03-06T01:36:49.971Z,12.35
2023-03-06T01:39:19.119Z,11.35
2023-03-06T01:41:47.467Z,13.55
2023-03-06T01:44:15.275Z,13.55
2023-03-06T01:46:44.041Z,14.02
2023-03-06T01:49:19.681Z,12.75
2023-03-06T01:51:53.489Z,16.77
2023-03-06T01:54:26.432Z,14.50
2023-03-06T01:56:57.647Z,13.57
2023-03-06T01:59:26.915Z,15.57
2023-03-06T02:01:55.876Z,17.50
2023-03-06T02:04:24.791Z,16.80
2023-03-06T02:06:53.005Z,17.52
2023-03-06T02:09:20.923Z,14.50
2023-03-06T02:11:50.077Z,16.63
2023-03-06T02:14:19.021Z,16.75
2023-03-06T02:16:46.973Z,17.75
2023-03-06T02:19:29.947Z,17.52
2023-03-06T02:21:57.908Z,17.08
2023-03-06T02:24:36.508Z,17.92
2023-03-06T02:27:08.058Z,20.58
2023-03-06T02:29:36.405Z,17.60
2023-03-06T02:32:05.212Z,18.52
2023-03-06T02:34:56.942Z,17.40
2023-03-06T02:37:26.427Z,16.58
2023-03-06T02:40:03.487Z,19.60
2023-03-06T02:42:32.788Z,21.45
2023-03-06T02:45:03.305Z,22.35
2023-03-06T02:47:31.748Z,22.70
2023-03-06T02:50:00.130Z,19.80
2023-03-06T02:52:27.953Z,22.45
2023-03-06T02:54:56.783Z,21.13
2023-03-06T02:57:24.985Z,21.08
2023-03-06T02:59:54.979Z,21.52
2023-03-06T03:02:22.798Z,20.15
2023-03-06T03:04:50.683Z,22.23
2023-03-06T03:07:18.949Z,22.25
2023-03-06T03:09:46.917Z,20.77
2023-03-06T03:12:14.849Z,20.20
2023-03-06T03:14:42.644Z,22.30
2023-03-06T03:17:11.855Z,22.17
2023-03-06T03:19:39.690Z,22.40
2023-03-06T03:22:07.937Z,23.98
2023-03-06T03:24:35.796Z,22.60
2023-03-06T03:27:04.012Z,22.50
2023-03-06T03:29:32.621Z,18.63
2023-03-06T03:32:00.643Z,19.33
2023-03-06T03:34:29.974Z,19.52
2023-03-06T03:36:58.470Z,20.45
2023-03-06T03:39:26.532Z,20.10
2023-03-06T03:41:54.322Z,21.30
2023-03-06T03:44:22.417Z,20.92
2023-03-06T03:46:50.241Z,22.30
2023-03-06T03:49:21.976Z,20.85
2023-03-06T03:51:52.672Z,19.90
2023-03-06T03:54:21.918Z,19.48
2023-03-06T03:56:51.324Z,20.63
2023-03-06T03:59:24.950Z,21.88
2023-03-06T04:02:04.707Z,16.67
2023-03-06T04:04:36.763Z,18.25
2023-03-06T04:07:06.270Z,17.25
2023-03-06T04:09:34.178Z,18.73
2023-03-06T04:12:02.329Z,17.80
2023-03-06T04:14:31.213Z,17.85
2023-03-06T04:16:59.143Z,16.67
2023-03-06T04:19:27.207Z,15.07
2023-03-06T04:21:55.044Z,18.83
2023-03-06T04:24:24.383Z,16.98
2023-03-06T04:26:53.004Z,15.43
2023-03-06T04:29:20.832Z,16.75
2023-03-06T04:31:48.708Z,16.67
2023-03-06T04:34:16.602Z,18.13
2023-03-06T04:36:46.083Z,20.30
2023-03-06T04:39:16.622Z,20.27
2023-03-06T04:41:45.930Z,16.02
2023-03-06T04:44:13.861Z,16.67
2023-03-06T04:46:41.629Z,17.88
2023-03-06T04:49:09.500Z,16.48
2023-03-06T04:51:37.738Z,14.88
2023-03-06T04:54:05.900Z,14.80
2023-03-06T04:56:34.547Z,16.90
2023-03-06T04:59:05.027Z,15.10
2023-03-06T05:01:32.850Z,16.55
2023-03-06T05:04:00.667Z,13.57
2023-03-06T05:06:28.480Z,13.13
2023-03-06T05:08:56.367Z,14.75
2023-03-06T05:11:24.140Z,13.15
2023-03-06T05:13:52.294Z,14.60
2023-03-06T05:16:21.509Z,11.75
2023-03-06T05:18:50.743Z,11.50
2023-03-06T05:21:18.589Z,12.02
2023-03-06T05:23:47.579Z,11.15
2023-03-06T05:26:16.214Z,11.13
2023-03-06T05:28:44.011Z,10.43
2023-03-06T05:31:11.921Z,10.93
2023-03-06T05:33:41.095Z,9.82
2023-03-06T05:36:10.319Z,9.00
2023-03-06T05:38:38.110Z,8.88
2023-03-06T05:41:06.208Z,8.25
2023-03-06T05:43:34.027Z,8.60
2023-03-06T05:46:03.467Z,10.07
2023-03-06T05:48:31.636Z,8.93
2023-03-06T05:51:02.661Z,8.85
2023-03-06T05:53:31.334Z,8.75
2023-03-06T05:56:00.200Z,9.10
2023-03-06T05:58:28.929Z,8.48
2023-03-06T06:00:56.892Z,9.75
2023-03-06T06:03:25.053Z,10.57
2023-03-06T06:05:53.512Z,10.50
2023-03-06T06:08:22.864Z,9.30
2023-03-06T06:10:53.322Z,9.30
2023-03-06T06:13:21.330Z,8.95
2023-03-06T06:15:49.136Z,7.60
2023-03-06T06:18:16.985Z,9.38
2023-03-06T06:20:44.780Z,10.05
2023-03-06T06:23:12.816Z,8.75
2023-03-06T06:25:42.242Z,7.40
2023-03-06T06:28:10.066Z,8.20
2023-03-06T06:30:38.343Z,6.93
2023-03-06T06:33:06.181Z,9.45
2023-03-06T06:35:37.228Z,8.93
2023-03-06T06:38:05.174Z,7.32
2023-03-06T06:40:32.982Z,5.90
2023-03-06T06:43:02.139Z,7.32
2023-03-06T06:45:29.964Z,5.82
2023-03-06T06:47:58.039Z,6.82
2023-03-06T06:50:25.981Z,6.22
2023-03-06T06:52:53.715Z,6.60
2023-03-06T06:55:21.552Z,5.28
2023-03-06T06:57:49.315Z,5.82
2023-03-06T07:00:20.315Z,6.82
2023-03-06T07:02:49.194Z,5.82
2023-03-06T07:05:17.216Z,4.50
2023-03-06T07:07:45.058Z,5.22
2023-03-06T07:10:15.708Z,5.45
2023-03-06T07:12:43.790Z,4.93
2023-03-06T07:15:13.666Z,6.70
2023-03-06T07:17:42.793Z,5.63
2023-03-06T07:20:12.647Z,5.03
2023-03-06T07:22:50.409Z,4.90
2023-03-06T07:25:19.732Z,3.95
2023-03-06T07:27:53.299Z,4.38
2023-03-06T07:30:22.370Z,4.35
2023-03-06T07:32:53.931Z,5.13
2023-03-06T07:35:22.044Z,3.83
2023-03-06T07:37:49.953Z,5.30
2023-03-06T07:40:19.584Z,3.90
2023-03-06T07:42:47.794Z,5.18
2023-03-06T07:45:19.582Z,4.10
2023-03-06T07:47:55.336Z,4.03
2023-03-06T07:50:23.237Z,4.60
2023-03-06T07:52:51.603Z,5.10
2023-03-06T07:55:19.787Z,3.65
2023-03-06T07:57:47.623Z,4.28
2023-03-06T08:00:16.901Z,3.92
2023-03-06T08:02:44.882Z,4.25
2023-03-06T08:05:16.520Z,3.67
2023-03-06T08:07:45.041Z,3.42
2023-03-06T08:10:15.350Z,3.80
2023-03-06T08:12:43.278Z,2.55
2023-03-06T08:15:12.498Z,3.15
2023-03-06T08:17:40.653Z,2.92
2023-03-06T08:20:11.443Z,3.10
2023-03-06T08:22:40.773Z,3.25
2023-03-06T08:25:09.411Z,3.38
2023-03-06T08:27:37.332Z,3.17
2023-03-06T08:30:05.668Z,3.30
2023-03-06T08:32:36.198Z,2.92
2023-03-06T08:35:04.400Z,4.20
2023-03-06T08:37:32.257Z,2.20
2023-03-06T08:40:02.633Z,3.00
2023-03-06T08:42:30.466Z,3.90
2023-03-06T08:44:58.263Z,3.58
2023-03-06T08:47:26.129Z,4.03
2023-03-06T08:49:53.922Z,2.65
2023-03-06T08:52:21.697Z,2.60
2023-03-06T08:54:49.462Z,2.28
2023-03-06T08:57:18.709Z,3.67
2023-03-06T08:59:46.535Z,4.55
2023-03-06T09:02:15.265Z,4.50
2023-03-06T09:04:43.156Z,2.65
2023-03-06T09:07:10.903Z,3.38
2023-03-06T09:09:38.669Z,3.72
2023-03-06T09:12:06.751Z,3.92
2023-03-06T09:14:35.897Z,3.40
2023-03-06T09:17:03.703Z,4.00
2023-03-06T09:19:31.482Z,2.63
2023-03-06T09:22:00.976Z,2.47
2023-03-06T09:24:29.031Z,3.88
2023-03-06T09:26:56.888Z,4.55
2023-03-06T09:29:24.667Z,3.42
2023-03-06T09:31:53.768Z,3.03
2023-03-06T09:34:21.699Z,4.00
2023-03-06T09:36:56.401Z,3.10
2023-03-06T09:39:25.820Z,4.07
2023-03-06T09:41:54.926Z,3.65
2023-03-06T09:44:25.987Z,2.15
2023-03-06T09:49:50.947Z,2.95
2023-03-06T09:52:32.412Z,3.42
2023-03-06T09:55:03.391Z,2.70
2023-03-06T10:00:04.657Z,4.13
2023-03-06T10:02:38.321Z,2.47
2023-03-06T10:05:13.391Z,3.47
2023-03-06T10:07:47.964Z,2.53
2023-03-06T10:10:21.776Z,3.05
2023-03-06T10:12:58.614Z,3.63
2023-03-06T10:15:30.836Z,3.90
2023-03-06T10:17:58.722Z,2.70
2023-03-06T10:20:29.673Z,2.45
2023-03-06T10:23:13.246Z,2.08
2023-03-06T10:25:50.820Z,3.22
2023-03-06T10:28:22.181Z,3.78
2023-03-06T10:30:55.247Z,3.95
2023-03-06T10:33:29.101Z,1.88
2023-03-06T10:35:58.532Z,2.20
2023-03-06T10:38:28.429Z,2.85
2023-03-06T10:41:08.828Z,3.67
2023-03-06T10:43:37.709Z,2.90
2023-03-06T10:46:06.918Z,2.15
2023-03-06T10:48:37.051Z,2.45
2023-03-06T10:51:19.079Z,4.07
2023-03-06T10:53:52.921Z,4.22
2023-03-06T10:56:32.405Z,3.45
2023-03-06T10:59:07.721Z,2.22
2023-03-06T11:01:36.870Z,2.90
2023-03-06T11:04:17.973Z,3.00
2023-03-06T11:06:47.170Z,3.63
2023-03-06T11:09:17.586Z,3.65
2023-03-06T11:11:45.439Z,2.75
2023-03-06T11:14:16.418Z,2.63
2023-03-06T11:16:52.717Z,3.50
2023-03-06T11:19:24.552Z,1.95
2023-03-06T11:22:05.031Z,2.15
2023-03-06T11:24:39.020Z,2.85
2023-03-06T11:27:23.633Z,2.33
2023-03-06T11:29:55.279Z,2.53
2023-03-06T11:32:28.806Z,2.20
2023-03-06T11:35:02.285Z,3.20
2023-03-06T11:37:43.631Z,3.85
2023-03-06T11:40:18.576Z,2.42
2023-03-06T11:42:52.636Z,3.05
2023-03-06T11:45:26.260Z,4.72
2023-03-06T11:48:02.806Z,3.67
2023-03-06T11:50:35.671Z,4.07
2023-03-06T11:53:07.354Z,4.05
2023-03-06T11:55:45.653Z,4.70
2023-03-06T11:58:33.683Z,3.67
2023-03-06T12:01:07.291Z,4.57
2023-03-06T12:03:57.611Z,4.38
2023-03-06T12:06:36.312Z,4.18
2023-03-06T12:09:24.223Z,6.38
2023-03-06T12:12:08.070Z,4.40
2023-03-06T12:14:51.862Z,4.18
2023-03-06T12:17:27.526Z,3.97
2023-03-06T12:20:23.150Z,5.03
2023-03-06T12:22:58.251Z,5.13
2023-03-06T12:25:44.992Z,4.88
2023-03-06T12:28:29.061Z,5.65
2023-03-06T12:31:16.019Z,5.55
2023-03-06T12:33:53.415Z,5.50
2023-03-06T12:36:39.808Z,5.50
2023-03-06T12:39:15.808Z,5.40
2023-03-06T12:42:17.869Z,6.55
2023-03-06T12:45:05.889Z,5.65
2023-03-06T12:47:40.555Z,4.95
2023-03-06T12:50:19.111Z,9.43
2023-03-06T12:52:49.183Z,5.95
2023-03-06T12:55:22.767Z,4.57
2023-03-06T12:57:54.088Z,4.80
2023-03-06T13:01:04.888Z,6.10
2023-03-06T13:03:49.290Z,4.93
2023-03-06T13:06:39.056Z,6.20
2023-03-06T13:09:19.971Z,4.80
2023-03-06T13:12:24.687Z,5.10
2023-03-06T13:15:01.910Z,5.43
2023-03-06T13:17:38.476Z,6.97
2023-03-06T13:20:30.413Z,6.75
2023-03-06T13:22:58.739Z,7.32
2023-03-06T13:25:47.849Z,6.20
2023-03-06T13:28:27.829Z,8.02
2023-03-06T13:30:57.108Z,6.95
2023-03-06T13:33:54.509Z,7.50
2023-03-06T13:36:30.803Z,8.30
2023-03-06T13:39:03.414Z,8.38
2023-03-06T13:41:43.692Z,8.93
2023-03-06T13:44:48.744Z,11.25
2023-03-06T13:47:32.178Z,9.60
2023-03-06T13:50:01.215Z,11.60
2023-03-06T13:52:40.850Z,11.80
2023-03-06T13:55:23.930Z,13.55
2023-03-06T14:00:58.715Z,13.07
2023-03-06T14:03:54.301Z,13.73
2023-03-06T14:07:01.278Z,16.23
2023-03-06T14:12:03.486Z,14.75
2023-03-06T14:14:40.259Z,14.20
2023-03-06T14:17:16.084Z,13.40
2023-03-06T14:19:45.256Z,14.10
2023-03-06T14:22:19.112Z,13.27
2023-03-06T14:24:56.500Z,12.80
2023-03-06T14:27:39.424Z,12.93
2023-03-06T14:30:09.802Z,13.45
2023-03-06T14:32:39.711Z,12.10
2023-03-06T14:35:24.690Z,10.05
2023-03-06T14:37:54.635Z,12.60
2023-03-06T14:40:28.480Z,12.50
2023-03-06T14:43:20.127Z,11.80
2023-03-06T14:45:58.604Z,12.05
2023-03-06T14:48:38.412Z,12.88
2023-03-06T14:51:12.808Z,10.48
2023-03-06T14:53:40.747Z,8.05
2023-03-06T14:56:08.856Z,10.23
2023-03-06T14:58:41.980Z,11.00
2023-03-06T15:01:13.099Z,12.30
2023-03-06T15:03:45.199Z,9.63
2023-03-06T15:06:18.886Z,11.07
2023-03-06T15:08:49.372Z,11.45
2023-03-06T15:11:17.159Z,9.82
2023-03-06T15:14:01.610Z,9.50
2023-03-06T15:16:30.666Z,10.38
2023-03-06T15:19:00.507Z,9.82
2023-03-06T15:21:35.020Z,9.30
2023-03-06T15:24:03.078Z,8.57
2023-03-06T15:26:33.310Z,10.63
2023-03-06T15:29:18.942Z,10.35
2023-03-06T15:31:47.325Z,10.00
2023-03-06T15:34:18.623Z,9.20
2023-03-06T15:39:38.931Z,9.23
2023-03-06T15:42:19.105Z,9.18
2023-03-06T15:44:51.528Z,9.65
2023-03-06T15:47:19.854Z,10.05
2023-03-06T15:49:51.773Z,9.52
2023-03-06T15:52:21.764Z,9.32
2023-03-06T15:54:49.885Z,11.02
2023-03-06T15:57:22.731Z,11.30
2023-03-06T15:59:51.405Z,11.82
2023-03-06T16:02:20.654Z,12.00
2023-03-06T16:04:49.358Z,13.07
2023-03-06T16:07:17.527Z,15.93
2023-03-06T16:09:47.419Z,12.15
2023-03-06T16:12:17.670Z,13.32
2023-03-06T16:14:45.732Z,18.63
2023-03-06T16:17:13.814Z,22.17
2023-03-06T16:19:42.052Z,24.55
2023-03-06T16:22:09.856Z,21.48
2023-03-06T16:24:37.723Z,22.27
2023-03-06T16:27:07.245Z,31.95
2023-03-06T16:29:35.185Z,22.65
2023-03-06T16:32:04.507Z,27.83
2023-03-06T16:34:32.305Z,27.15
2023-03-06T16:37:00.109Z,26.65
2023-03-06T16:39:27.880Z,27.98
2023-03-06T16:41:56.352Z,27.25
2023-03-06T16:44:25.536Z,26.95
2023-03-06T16:46:53.339Z,25.77
2023-03-06T16:49:23.869Z,24.13
2023-03-06T16:51:52.691Z,28.48
2023-03-06T16:54:21.808Z,27.30
2023-03-06T16:56:49.828Z,28.38
2023-03-06T16:59:17.630Z,30.40
2023-03-06T17:01:46.858Z,29.40
2023-03-06T17:04:14.714Z,29.60
2023-03-06T17:06:43.161Z,27.63
2023-03-06T17:09:11.404Z,31.17
2023-03-06T17:11:39.513Z,31.40
2023-03-06T17:14:07.710Z,30.25
2023-03-06T17:16:37.058Z,29.90
2023-03-06T17:19:06.242Z,29.88
2023-03-06T17:21:35.372Z,30.13
2023-03-06T17:24:03.851Z,27.88
2023-03-06T17:26:31.906Z,26.75
2023-03-06T17:28:59.876Z,26.00
2023-03-06T17:31:29.307Z,26.45
2023-03-06T17:34:00.444Z,27.42
2023-03-06T17:36:30.659Z,29.92
2023-03-06T17:38:59.999Z,30.35
2023-03-06T17:41:28.405Z,27.10
2023-03-06T17:43:58.146Z,30.33
2023-03-06T17:46:26.234Z,30.30
2023-03-06T17:48:54.393Z,26.10
2023-03-06T17:51:22.200Z,24.92
2023-03-06T17:53:52.218Z,27.80
2023-03-06T17:56:20.368Z,25.55
2023-03-06T17:58:48.293Z,29.58
2023-03-06T18:01:18.646Z,25.08
2023-03-06T18:03:48.190Z,28.30
2023-03-06T18:06:17.075Z,25.27
2023-03-06T18:08:45.800Z,30.50
2023-03-06T18:11:15.279Z,28.40
2023-03-06T18:13:44.591Z,29.92
2023-03-06T18:16:14.212Z,30.35
2023-03-06T18:18:42.340Z,29.50
2023-03-06T18:21:12.075Z,30.73
2023-03-06T18:23:41.533Z,32.00
2023-03-06T18:26:12.442Z,28.77
2023-03-06T18:28:44.429Z,28.77
2023-03-06T18:31:16.977Z,34.75
2023-03-06T18:33:45.088Z,33.75
2023-03-06T18:36:12.901Z,34.65
2023-03-06T18:38:43.954Z,35.95
2023-03-06T18:41:12.136Z,24.42
2023-03-06T18:43:41.309Z,32.05
2023-03-06T18:46:09.513Z,35.60
2023-03-06T18:48:37.547Z,35.67
2023-03-06T18:51:06.342Z,34.85
2023-03-06T18:53:34.246Z,35.10
2023-03-06T18:56:02.087Z,35.95
2023-03-06T18:58:30.648Z,34.50
2023-03-06T19:01:02.140Z,33.22
2023-03-06T19:03:30.050Z,38.50
2023-03-06T19:05:59.120Z,37.65
2023-03-06T19:08:26.934Z,38.70
2023-03-06T19:10:54.733Z,30.80
2023-03-06T19:13:22.464Z,37.92
2023-03-06T19:15:50.354Z,34.38
2023-03-06T19:18:19.534Z,38.28
2023-03-06T19:20:47.349Z,37.05
2023-03-06T19:23:15.135Z,34.65
2023-03-06T19:25:43.054Z,36.80
2023-03-06T19:28:10.863Z,36.80
2023-03-06T19:30:41.143Z,38.25
2023-03-06T19:33:08.942Z,35.95
2023-03-06T19:35:38.165Z,42.90
2023-03-06T19:38:06.172Z,36.35
2023-03-06T19:40:34.355Z,36.95
2023-03-06T19:43:02.358Z,43.40
2023-03-06T19:45:30.256Z,37.15
2023-03-06T19:48:00.840Z,45.60
2023-03-06T19:50:29.729Z,50.20
2023-03-06T19:52:59.096Z,36.60
2023-03-06T19:55:28.615Z,45.15
2023-03-06T19:57:56.452Z,42.83
2023-03-06T20:00:24.708Z,48.45
2023-03-06T20:02:52.566Z,48.95
2023-03-06T20:05:20.487Z,44.72
2023-03-06T20:07:48.308Z,48.15
2023-03-06T20:10:18.320Z,46.63
2023-03-06T20:12:46.523Z,47.45
2023-03-06T20:15:14.344Z,54.67
2023-03-06T20:17:42.137Z,49.15
2023-03-06T20:20:12.016Z,49.22
2023-03-06T20:22:39.897Z,53.20
2023-03-06T20:25:08.131Z,41.92
2023-03-06T20:27:37.527Z,51.55
2023-03-06T20:30:08.003Z,46.38
2023-03-06T20:32:38.430Z,48.65
2023-03-06T20:35:08.380Z,55.20
2023-03-06T20:37:36.174Z,48.63
2023-03-06T20:40:04.494Z,43.35
2023-03-06T20:42:32.297Z,53.72
2023-03-06T20:45:01.468Z,52.45
2023-03-06T20:47:29.254Z,50.50
2023-03-06T20:49:57.217Z,44.60
2023-03-06T20:52:27.542Z,46.65
2023-03-06T20:54:55.316Z,49.65
2023-03-06T20:57:23.099Z,53.00
2023-03-06T20:59:50.875Z,51.13
2023-03-06T21:02:20.034Z,50.17
2023-03-06T21:04:47.848Z,49.17
2023-03-06T21:07:16.912Z,49.67
2023-03-06T21:09:44.696Z,51.95
2023-03-06T21:12:12.473Z,48.60
2023-03-06T21:14:40.231Z,37.13
2023-03-06T21:17:07.989Z,42.50
2023-03-06T21:19:37.199Z,34.53
2023-03-06T21:22:05.027Z,49.85
2023-03-06T21:24:32.853Z,55.22
2023-03-06T21:27:00.631Z,40.08
2023-03-06T21:29:28.426Z,52.95
2023-03-06T21:31:56.179Z,57.90
2023-03-06T21:34:24.004Z,56.65
2023-03-06T21:36:53.167Z,48.70
2023-03-06T21:39:21.016Z,42.42
2023-03-06T21:41:48.831Z,46.03
2023-03-06T21:44:16.623Z,40.28
2023-03-06T21:46:44.374Z,43.45
2023-03-06T21:49:12.161Z,47.20
2023-03-06T21:51:39.998Z,33.90
2023-03-06T21:54:09.721Z,40.15
2023-03-06T21:56:37.569Z,40.25
2023-03-06T21:59:05.434Z,39.25
2023-03-06T22:01:33.840Z,38.90
2023-03-06T22:04:01.729Z,39.85
2023-03-06T22:06:31.233Z,33.67
2023-03-06T22:09:01.325Z,34.15
2023-03-06T22:11:34.197Z,31.27
2023-03-06T22:14:02.153Z,28.00
2023-03-06T22:16:30.111Z,28.58
2023-03-06T22:18:57.920Z,26.25
2023-03-06T22:21:26.013Z,28.10
2023-03-06T22:23:57.219Z,26.55
2023-03-06T22:26:25.184Z,23.58
2023-03-06T22:28:54.343Z,22.52
2023-03-06T22:31:24.785Z,18.50
2023-03-06T22:33:53.117Z,19.45
2023-03-06T22:36:21.740Z,17.13
2023-03-06T22:38:50.663Z,15.88
2023-03-06T22:41:20.090Z,16.88
2023-03-06T22:43:48.383Z,15.98
2023-03-06T22:46:18.868Z,17.02
2023-03-06T22:48:46.723Z,14.68
2023-03-06T22:51:16.380Z,13.60
2023-03-06T22:53:44.881Z,15.30
2023-03-06T22:56:14.635Z,14.38
2023-03-06T22:58:44.754Z,12.98
2023-03-06T23:01:15.238Z,13.82
2023-03-06T23:03:46.049Z,13.70
2023-03-06T23:06:16.451Z,13.95
2023-03-06T23:08:49.097Z,17.17
2023-03-06T23:11:19.474Z,12.88
2023-03-06T23:14:06.090Z,13.45
2023-03-06T23:16:52.843Z,11.25
2023-03-06T23:19:40.442Z,12.73
2023-03-06T23:22:26.750Z,10.68
2023-03-06T23:25:13.132Z,11.63
2023-03-06T23:27:41.079Z,12.27
2023-03-06T23:30:10.405Z,9.73
2023-03-06T23:32:38.223Z,11.63
2023-03-06T23:35:08.567Z,12.75
2023-03-06T23:37:36.339Z,11.10
2023-03-06T23:40:07.759Z,12.77
2023-03-06T23:45:03.191Z,13.40
2023-03-06T23:47:32.923Z,14.20
2023-03-06T23:50:00.723Z,18.45
2023-03-06T23:52:29.875Z,19.33
2023-03-06T23:54:57.674Z,17.52
2023-03-06T23:57:25.472Z,16.80
2023-03-06T23:59:53.357Z,18.77
